createdAt,value
2022-09-07T00:01:00.985Z,5.82
2022-09-07T00:03:29.679Z,5.75
2022-09-07T00:05:59.560Z,5.90
2022-09-07T00:08:29.164Z,5.97
2022-09-07T00:10:58.586Z,5.60
2022-09-07T00:13:28.331Z,5.35
2022-09-07T00:15:56.853Z,5.88
2022-09-07T00:18:25.386Z,6.05
2022-09-07T00:21:01.115Z,5.57
2022-09-07T00:23:30.039Z,5.50
2022-09-07T00:26:00.996Z,5.53
2022-09-07T00:28:29.664Z,5.15
2022-09-07T00:30:58.488Z,5.20
2022-09-07T00:33:26.984Z,5.63
2022-09-07T00:35:55.521Z,5.43
2022-09-07T00:38:25.402Z,5.90
2022-09-07T00:40:53.907Z,6.05
2022-09-07T00:43:31.828Z,6.10
2022-09-07T00:46:00.407Z,6.60
2022-09-07T00:48:31.571Z,6.50
2022-09-07T00:51:02.908Z,5.70
2022-09-07T00:53:35.153Z,5.32
2022-09-07T00:56:04.878Z,5.30
2022-09-07T00:58:33.734Z,4.38
2022-09-07T01:01:02.133Z,3.97
2022-09-07T01:03:32.080Z,4.00
2022-09-07T01:06:02.500Z,3.50
2022-09-07T01:08:31.403Z,3.70
2022-09-07T01:11:02.035Z,3.90
2022-09-07T01:13:30.533Z,3.70
2022-09-07T01:16:01.899Z,3.83
2022-09-07T01:18:32.949Z,4.03
2022-09-07T01:21:11.348Z,4.63
2022-09-07T01:23:54.585Z,4.03
2022-09-07T01:26:40.951Z,4.20
2022-09-07T01:29:12.886Z,3.50
2022-09-07T01:31:43.578Z,3.70
2022-09-07T01:34:14.722Z,3.55
2022-09-07T01:36:50.425Z,3.25
2022-09-07T01:39:19.848Z,3.05
2022-09-07T01:41:51.012Z,3.33
2022-09-07T01:44:22.737Z,3.00
2022-09-07T01:46:53.070Z,3.20
2022-09-07T01:49:23.391Z,3.17
2022-09-07T01:51:54.960Z,3.10
2022-09-07T01:54:25.953Z,3.33
2022-09-07T01:56:55.533Z,3.08
2022-09-07T01:59:27.554Z,2.92
2022-09-07T02:01:58.285Z,3.00
2022-09-07T02:04:29.770Z,3.00
2022-09-07T02:07:00.781Z,2.83
2022-09-07T02:09:33.079Z,3.47
2022-09-07T02:12:03.469Z,3.10
2022-09-07T02:14:35.532Z,3.08
2022-09-07T02:17:05.503Z,3.03
2022-09-07T02:19:37.045Z,3.83
2022-09-07T02:22:07.196Z,3.30
2022-09-07T02:24:37.686Z,3.63
2022-09-07T02:27:08.399Z,3.30
2022-09-07T02:29:38.125Z,3.30
2022-09-07T02:32:06.495Z,3.50
2022-09-07T02:34:34.930Z,3.70
2022-09-07T02:37:03.916Z,4.20
2022-09-07T02:39:32.243Z,4.18
2022-09-07T02:42:00.592Z,4.40
2022-09-07T02:44:31.638Z,3.80
2022-09-07T02:47:08.513Z,4.20
2022-09-07T02:49:46.227Z,4.20
2022-09-07T02:52:20.536Z,3.80
2022-09-07T02:54:54.840Z,3.60
2022-09-07T02:57:26.017Z,4.03
2022-09-07T03:00:01.557Z,4.00
2022-09-07T03:02:34.827Z,4.60
2022-09-07T03:05:04.697Z,4.55
2022-09-07T03:07:36.022Z,4.60
2022-09-07T03:10:06.680Z,4.35
2022-09-07T03:12:42.252Z,5.00
2022-09-07T03:15:12.563Z,4.43
2022-09-07T03:17:42.801Z,5.03
2022-09-07T03:20:11.813Z,5.43
2022-09-07T03:22:40.322Z,5.28
2022-09-07T03:25:09.347Z,4.72
2022-09-07T03:27:37.937Z,4.97
2022-09-07T03:30:06.831Z,4.88
2022-09-07T03:32:36.411Z,5.65
2022-09-07T03:35:07.229Z,5.03
2022-09-07T03:37:37.344Z,5.32
2022-09-07T03:40:06.155Z,5.22
2022-09-07T03:42:34.553Z,5.13
2022-09-07T03:45:02.919Z,5.03
2022-09-07T03:47:31.324Z,5.25
2022-09-07T03:49:59.615Z,5.53
2022-09-07T03:52:29.293Z,5.03
2022-09-07T03:54:57.665Z,5.57
2022-09-07T03:57:25.969Z,5.13
2022-09-07T03:59:54.251Z,5.60
2022-09-07T04:02:22.628Z,5.93
2022-09-07T04:04:50.961Z,5.50
2022-09-07T04:07:19.460Z,5.22
2022-09-07T04:09:51.326Z,5.75
2022-09-07T04:12:19.695Z,5.68
2022-09-07T04:14:48.004Z,5.85
2022-09-07T04:17:16.330Z,5.72
2022-09-07T04:19:44.670Z,5.70
2022-09-07T04:22:12.994Z,5.55
2022-09-07T04:24:41.434Z,6.03
2022-09-07T04:27:11.108Z,6.40
2022-09-07T04:29:39.521Z,5.32
2022-09-07T04:32:08.401Z,6.35
2022-09-07T04:34:37.998Z,7.65
2022-09-07T04:37:06.963Z,5.60
2022-09-07T04:39:35.439Z,5.82
2022-09-07T04:42:03.882Z,5.88
2022-09-07T04:44:33.594Z,6.35
2022-09-07T04:47:01.943Z,6.20
2022-09-07T04:49:30.330Z,6.75
2022-09-07T04:51:58.633Z,6.30
2022-09-07T04:54:27.486Z,5.93
2022-09-07T04:56:55.818Z,6.05
2022-09-07T04:59:24.309Z,5.78
2022-09-07T05:01:54.153Z,6.18
2022-09-07T05:04:22.541Z,6.10
2022-09-07T05:06:50.948Z,6.28
2022-09-07T05:09:19.337Z,5.70
2022-09-07T05:11:47.723Z,5.47
2022-09-07T05:14:16.007Z,5.75
2022-09-07T05:16:46.250Z,5.78
2022-09-07T05:19:16.426Z,5.28
2022-09-07T05:21:44.871Z,5.47
2022-09-07T05:24:13.220Z,5.43
2022-09-07T05:26:41.836Z,5.05
2022-09-07T05:31:58.967Z,4.63
2022-09-07T05:37:02.073Z,5.03
2022-09-07T05:39:33.092Z,5.22
2022-09-07T05:42:01.445Z,5.13
2022-09-07T05:44:47.121Z,4.65
2022-09-07T05:47:15.873Z,5.50
2022-09-07T05:49:46.212Z,4.78
2022-09-07T05:52:14.588Z,5.10
2022-09-07T05:54:43.044Z,4.53
2022-09-07T05:57:12.910Z,4.38
2022-09-07T05:59:41.406Z,4.50
2022-09-07T06:02:09.831Z,4.55
2022-09-07T06:04:38.190Z,4.72
2022-09-07T06:07:21.510Z,4.40
2022-09-07T06:12:38.667Z,4.53
2022-09-07T06:15:07.438Z,4.28
2022-09-07T06:17:36.143Z,4.70
2022-09-07T06:20:04.983Z,4.60
2022-09-07T06:22:36.421Z,5.10
2022-09-07T06:25:04.853Z,4.40
2022-09-07T06:27:33.233Z,4.57
2022-09-07T06:30:01.568Z,4.40
2022-09-07T06:32:45.519Z,4.18
2022-09-07T06:35:14.540Z,4.22
2022-09-07T06:37:44.494Z,4.40
2022-09-07T06:40:13.486Z,3.97
2022-09-07T06:42:41.908Z,4.10
2022-09-07T06:45:11.432Z,4.40
2022-09-07T06:47:40.363Z,4.07
2022-09-07T06:50:09.317Z,4.20
2022-09-07T06:55:28.817Z,4.32
2022-09-07T06:57:57.215Z,4.65
2022-09-07T07:00:25.767Z,4.80
2022-09-07T07:02:54.476Z,5.43
2022-09-07T07:05:22.937Z,5.93
2022-09-07T07:07:51.405Z,5.03
2022-09-07T07:10:24.222Z,5.55
2022-09-07T07:12:57.530Z,5.60
2022-09-07T07:15:27.326Z,6.03
2022-09-07T07:17:59.109Z,6.47
2022-09-07T07:20:33.728Z,7.00
2022-09-07T07:23:02.169Z,8.00
2022-09-07T07:25:30.539Z,7.50
2022-09-07T07:30:48.569Z,9.55
2022-09-07T07:33:17.066Z,10.73
2022-09-07T07:35:45.505Z,14.98
2022-09-07T07:43:56.998Z,14.20
2022-09-07T07:46:26.004Z,16.90
2022-09-07T07:48:54.833Z,16.73
2022-09-07T07:51:23.276Z,15.93
2022-09-07T07:53:51.577Z,15.43
2022-09-07T07:56:19.948Z,15.88
2022-09-07T07:58:48.984Z,17.52
2022-09-07T08:01:19.512Z,15.65
2022-09-07T08:03:49.063Z,18.77
2022-09-07T08:06:18.573Z,18.42
2022-09-07T08:08:47.127Z,17.83
2022-09-07T08:11:17.117Z,16.77
2022-09-07T08:13:46.092Z,17.73
2022-09-07T08:16:15.165Z,19.02
2022-09-07T08:18:47.061Z,19.73
2022-09-07T08:21:16.106Z,20.90
2022-09-07T08:23:44.501Z,20.60
2022-09-07T08:26:13.127Z,17.77
2022-09-07T08:28:43.795Z,17.25
2022-09-07T08:31:13.735Z,20.30
2022-09-07T08:33:42.183Z,20.17
2022-09-07T08:36:13.391Z,19.83
2022-09-07T08:38:41.647Z,20.52
2022-09-07T08:41:27.549Z,19.80
2022-09-07T08:43:59.595Z,19.02
2022-09-07T08:46:30.391Z,20.23
2022-09-07T08:49:00.909Z,19.77
2022-09-07T08:51:35.447Z,22.50
2022-09-07T08:54:05.974Z,21.73
2022-09-07T08:56:37.706Z,22.45
2022-09-07T08:59:10.790Z,19.20
2022-09-07T09:01:41.172Z,20.40
2022-09-07T09:04:17.634Z,18.48
2022-09-07T09:06:55.659Z,18.85
2022-09-07T09:09:27.956Z,19.40
2022-09-07T09:12:06.644Z,20.13
2022-09-07T09:14:38.691Z,20.52
2022-09-07T09:17:11.500Z,18.88
2022-09-07T09:19:46.971Z,19.17
2022-09-07T09:22:17.565Z,15.32
2022-09-07T09:24:47.562Z,13.93
2022-09-07T09:27:15.778Z,13.55
2022-09-07T09:29:44.363Z,9.85
2022-09-07T09:32:31.254Z,9.82
2022-09-07T09:35:02.016Z,9.02
2022-09-07T09:37:36.634Z,10.02
2022-09-07T09:40:06.244Z,10.40
2022-09-07T09:42:35.909Z,11.90
2022-09-07T09:45:05.166Z,10.90
2022-09-07T09:47:35.945Z,11.43
2022-09-07T09:50:06.984Z,11.43
2022-09-07T09:52:47.581Z,11.77
2022-09-07T09:55:34.507Z,10.35
2022-09-07T10:04:01.169Z,10.50
2022-09-07T10:06:32.988Z,10.30
2022-09-07T10:09:03.447Z,10.43
2022-09-07T10:14:31.892Z,9.43
2022-09-07T10:17:02.143Z,10.93
2022-09-07T10:19:35.200Z,11.55
2022-09-07T10:22:04.029Z,10.57
2022-09-07T10:24:38.564Z,10.52
2022-09-07T10:27:20.943Z,11.40
2022-09-07T10:29:49.293Z,10.63
2022-09-07T10:32:21.755Z,10.02
2022-09-07T10:34:58.595Z,9.85
2022-09-07T10:37:33.853Z,9.45
2022-09-07T10:40:06.827Z,9.52
2022-09-07T10:42:37.024Z,9.43
2022-09-07T10:45:07.642Z,9.10
2022-09-07T10:47:43.516Z,9.65
2022-09-07T10:50:23.318Z,8.63
2022-09-07T10:52:55.028Z,8.23
2022-09-07T10:55:27.972Z,7.68
2022-09-07T10:58:03.388Z,8.35
2022-09-07T11:00:33.970Z,7.88
2022-09-07T11:03:30.099Z,8.88
2022-09-07T11:06:04.079Z,8.98
2022-09-07T11:14:20.256Z,9.15
2022-09-07T11:16:55.848Z,9.82
2022-09-07T11:19:42.041Z,9.80
2022-09-07T11:22:22.540Z,9.27
2022-09-07T11:27:46.389Z,8.93
2022-09-07T11:30:17.533Z,9.60
2022-09-07T11:32:50.367Z,9.48
2022-09-07T11:35:21.401Z,9.20
2022-09-07T11:37:59.243Z,9.90
2022-09-07T11:40:29.797Z,10.00
2022-09-07T11:43:02.434Z,8.55
2022-09-07T11:45:32.461Z,9.20
2022-09-07T11:48:02.979Z,9.05
2022-09-07T11:50:33.234Z,9.02
2022-09-07T11:53:04.504Z,9.90
2022-09-07T11:55:34.475Z,10.10
2022-09-07T11:58:20.720Z,9.25
2022-09-07T12:00:52.882Z,8.80
2022-09-07T12:03:32.691Z,9.55
2022-09-07T12:06:21.637Z,9.02
2022-09-07T12:08:58.851Z,9.18
2022-09-07T12:11:41.439Z,9.48
2022-09-07T12:14:17.886Z,8.93
2022-09-07T12:17:00.696Z,8.90
2022-09-07T12:19:29.679Z,9.45
2022-09-07T12:22:00.987Z,9.90
2022-09-07T12:24:38.759Z,9.20
2022-09-07T12:27:07.717Z,9.48
2022-09-07T12:29:37.343Z,9.23
2022-09-07T12:32:53.427Z,9.75
2022-09-07T12:34:57.780Z,9.48
2022-09-07T12:37:42.483Z,9.35
2022-09-07T12:40:29.385Z,9.05
2022-09-07T12:43:12.480Z,9.70
2022-09-07T12:45:52.791Z,8.90
2022-09-07T12:48:30.746Z,7.78
2022-09-07T12:51:02.274Z,9.32
2022-09-07T12:53:32.540Z,9.05
2022-09-07T12:56:21.320Z,9.00
2022-09-07T12:58:55.274Z,8.88
2022-09-07T13:01:30.991Z,8.90
2022-09-07T13:04:20.186Z,8.77
2022-09-07T13:07:02.571Z,9.45
2022-09-07T13:09:32.836Z,8.65
2022-09-07T13:12:04.637Z,9.32
2022-09-07T13:14:34.796Z,9.32
2022-09-07T13:17:21.612Z,9.30
2022-09-07T13:20:07.562Z,8.18
2022-09-07T13:22:54.205Z,9.55
2022-09-07T13:25:41.233Z,9.32
2022-09-07T13:28:15.546Z,9.82
2022-09-07T13:30:49.658Z,10.27
2022-09-07T13:33:42.080Z,9.38
2022-09-07T13:36:20.465Z,10.32
2022-09-07T13:38:48.905Z,11.50
2022-09-07T13:41:17.815Z,10.00
2022-09-07T13:43:48.304Z,10.57
2022-09-07T13:46:20.937Z,10.73
2022-09-07T13:48:51.533Z,9.88
2022-09-07T13:51:25.111Z,9.40
2022-09-07T13:54:01.910Z,9.68
2022-09-07T13:56:34.797Z,10.85
2022-09-07T13:59:13.046Z,9.13
2022-09-07T14:01:45.278Z,10.57
2022-09-07T14:04:17.991Z,9.30
2022-09-07T14:06:47.619Z,7.65
2022-09-07T14:09:16.895Z,9.40
2022-09-07T14:11:46.298Z,9.60
2022-09-07T14:14:16.336Z,8.93
2022-09-07T14:16:47.914Z,9.10
2022-09-07T14:19:22.452Z,8.75
2022-09-07T14:22:00.040Z,10.50
2022-09-07T14:24:35.652Z,10.02
2022-09-07T14:27:04.378Z,9.32
2022-09-07T14:29:33.669Z,9.27
2022-09-07T14:32:02.976Z,8.90
2022-09-07T14:34:37.017Z,10.02
2022-09-07T14:37:08.776Z,9.55
2022-09-07T14:39:40.100Z,11.38
2022-09-07T14:42:08.852Z,10.77
2022-09-07T14:44:39.061Z,10.20
2022-09-07T14:47:19.038Z,10.05
2022-09-07T14:49:52.087Z,8.52
2022-09-07T14:52:24.654Z,9.30
2022-09-07T14:54:53.741Z,10.23
2022-09-07T14:57:27.935Z,9.55
2022-09-07T14:59:57.232Z,9.82
2022-09-07T15:02:28.295Z,9.88
2022-09-07T15:05:14.209Z,9.30
2022-09-07T15:07:46.987Z,11.13
2022-09-07T15:10:15.772Z,10.50
2022-09-07T15:12:44.728Z,10.32
2022-09-07T15:15:24.416Z,10.32
2022-09-07T15:17:53.228Z,8.85
2022-09-07T15:20:35.417Z,7.82
2022-09-07T15:23:05.862Z,7.95
2022-09-07T15:25:34.206Z,8.80
2022-09-07T15:28:02.511Z,8.48
2022-09-07T15:30:30.980Z,7.75
2022-09-07T15:33:04.302Z,7.78
2022-09-07T15:35:32.542Z,8.35
2022-09-07T15:38:02.343Z,9.35
2022-09-07T15:40:37.487Z,7.72
2022-09-07T15:43:19.500Z,8.77
2022-09-07T15:45:50.997Z,9.07
2022-09-07T15:48:20.825Z,9.02
2022-09-07T15:50:49.519Z,9.35
2022-09-07T15:56:08.253Z,8.65
2022-09-07T15:58:36.561Z,8.68
2022-09-07T16:03:57.873Z,7.97
2022-09-07T16:06:27.203Z,8.38
2022-09-07T16:08:55.485Z,8.30
2022-09-07T16:11:25.890Z,8.40
2022-09-07T16:13:57.391Z,7.93
2022-09-07T16:17:26.670Z,8.20
2022-09-07T16:19:15.395Z,9.20
2022-09-07T16:21:43.716Z,8.23
2022-09-07T16:24:11.980Z,8.43
2022-09-07T16:26:41.557Z,7.28
2022-09-07T16:29:10.393Z,7.75
2022-09-07T16:32:43.491Z,7.28
2022-09-07T16:34:26.865Z,7.68
2022-09-07T16:36:55.104Z,7.80
2022-09-07T16:39:23.614Z,8.13
2022-09-07T16:41:53.785Z,7.15
2022-09-07T16:44:22.038Z,7.72
2022-09-07T16:46:50.600Z,7.28
2022-09-07T16:49:19.701Z,8.02
2022-09-07T16:51:49.636Z,8.20
2022-09-07T16:54:18.263Z,7.55
2022-09-07T16:56:47.410Z,8.20
2022-09-07T16:59:18.309Z,7.38
2022-09-07T17:01:46.589Z,6.90
2022-09-07T17:04:15.112Z,6.95
2022-09-07T17:06:43.403Z,6.50
2022-09-07T17:09:12.098Z,6.20
2022-09-07T17:11:40.309Z,7.20
2022-09-07T17:14:08.690Z,7.32
2022-09-07T17:16:39.349Z,6.30
2022-09-07T17:21:59.906Z,7.85
2022-09-07T17:24:28.128Z,8.30
2022-09-07T17:26:56.722Z,7.72
2022-09-07T17:29:27.472Z,8.13
2022-09-07T17:34:46.549Z,7.05
2022-09-07T17:37:14.752Z,6.38
2022-09-07T17:39:44.336Z,6.57
2022-09-07T17:42:13.274Z,6.85
2022-09-07T17:44:41.521Z,6.60
2022-09-07T17:47:11.223Z,5.93
2022-09-07T17:49:39.472Z,11.52
2022-09-07T17:52:07.717Z,7.20
2022-09-07T17:54:35.939Z,6.57
2022-09-07T17:57:05.034Z,8.02
2022-09-07T18:02:23.189Z,7.70
2022-09-07T18:04:51.511Z,7.60
2022-09-07T18:07:19.759Z,7.25
2022-09-07T18:09:47.988Z,7.22
2022-09-07T18:12:16.164Z,7.32
2022-09-07T18:14:45.188Z,7.20
2022-09-07T18:17:13.463Z,7.65
2022-09-07T18:19:43.083Z,7.65
2022-09-07T18:22:11.302Z,8.77
2022-09-07T18:24:39.685Z,8.05
2022-09-07T18:27:08.191Z,8.40
2022-09-07T18:29:36.419Z,8.60
2022-09-07T18:32:07.984Z,7.85
2022-09-07T18:34:40.631Z,7.82
2022-09-07T18:37:12.244Z,7.32
2022-09-07T18:39:41.038Z,7.88
2022-09-07T18:42:12.081Z,8.25
2022-09-07T18:47:34.818Z,9.00
2022-09-07T18:50:10.623Z,8.63
2022-09-07T18:53:04.195Z,7.68
2022-09-07T18:55:28.665Z,8.23
2022-09-07T18:57:56.901Z,8.10
2022-09-07T19:00:25.153Z,7.55
2022-09-07T19:02:53.377Z,7.47
2022-09-07T19:08:11.198Z,8.57
2022-09-07T19:10:39.600Z,8.40
2022-09-07T19:13:07.848Z,8.55
2022-09-07T19:15:37.585Z,8.27
2022-09-07T19:18:06.568Z,8.07
2022-09-07T19:20:35.187Z,8.73
2022-09-07T19:23:03.483Z,8.80
2022-09-07T19:25:33.078Z,9.05
2022-09-07T19:28:01.439Z,9.32
2022-09-07T19:30:30.477Z,8.68
2022-09-07T19:33:03.371Z,8.52
2022-09-07T19:35:36.073Z,9.10
2022-09-07T19:38:04.269Z,8.68
2022-09-07T19:40:33.837Z,9.20
2022-09-07T19:43:02.219Z,9.18
2022-09-07T19:45:30.449Z,9.00
2022-09-07T19:47:58.724Z,9.65
2022-09-07T19:50:26.928Z,9.88
2022-09-07T19:52:55.148Z,10.05
2022-09-07T19:55:23.479Z,9.98
2022-09-07T19:57:53.280Z,10.13
2022-09-07T20:00:22.651Z,9.50
2022-09-07T20:02:52.230Z,9.57
2022-09-07T20:05:20.420Z,10.07
2022-09-07T20:07:48.652Z,10.13
2022-09-07T20:10:16.950Z,9.88
2022-09-07T20:12:45.136Z,9.82
2022-09-07T20:15:14.848Z,9.90
2022-09-07T20:17:43.065Z,9.98
2022-09-07T20:20:11.655Z,10.27
2022-09-07T20:22:40.013Z,10.60
2022-09-07T20:25:12.989Z,11.05
2022-09-07T20:27:41.544Z,11.10
2022-09-07T20:30:10.243Z,10.60
2022-09-07T20:32:39.806Z,10.93
2022-09-07T20:35:08.259Z,11.45
2022-09-07T20:37:36.596Z,10.80
2022-09-07T20:40:06.340Z,11.30
2022-09-07T20:42:34.707Z,11.40
2022-09-07T20:45:03.227Z,10.32
2022-09-07T20:47:31.418Z,10.82
2022-09-07T20:50:00.951Z,11.80
2022-09-07T20:52:29.169Z,12.60
2022-09-07T20:54:57.390Z,10.93
2022-09-07T20:57:25.789Z,11.68
2022-09-07T20:59:54.052Z,11.27
2022-09-07T21:02:22.315Z,11.48
2022-09-07T21:04:50.598Z,10.55
2022-09-07T21:07:20.143Z,10.60
2022-09-07T21:09:48.334Z,11.07
2022-09-07T21:12:16.553Z,11.35
2022-09-07T21:14:45.968Z,11.60
2022-09-07T21:17:14.192Z,12.20
2022-09-07T21:19:43.403Z,11.23
2022-09-07T21:22:12.402Z,12.07
2022-09-07T21:24:42.199Z,10.85
2022-09-07T21:27:10.783Z,10.30
2022-09-07T21:29:38.990Z,10.55
2022-09-07T21:32:09.965Z,10.93
2022-09-07T21:34:38.143Z,11.40
2022-09-07T21:37:06.426Z,11.15
2022-09-07T21:39:34.669Z,11.45
2022-09-07T21:42:04.417Z,10.65
2022-09-07T21:44:32.580Z,11.75
2022-09-07T21:47:00.823Z,10.88
2022-09-07T21:49:29.065Z,11.43
2022-09-07T21:51:57.244Z,12.77
2022-09-07T21:54:25.475Z,13.88
2022-09-07T21:56:54.214Z,12.52
2022-09-07T21:59:23.766Z,12.35
2022-09-07T22:01:52.018Z,13.68
2022-09-07T22:04:20.398Z,13.85
2022-09-07T22:06:48.802Z,12.52
2022-09-07T22:09:17.029Z,11.48
2022-09-07T22:11:46.286Z,12.85
2022-09-07T22:14:16.363Z,12.23
2022-09-07T22:16:46.021Z,12.10
2022-09-07T22:19:14.442Z,12.32
2022-09-07T22:21:42.674Z,11.90
2022-09-07T22:24:12.535Z,12.05
2022-09-07T22:26:40.721Z,11.60
2022-09-07T22:29:09.667Z,11.23
2022-09-07T22:31:39.381Z,12.43
2022-09-07T22:34:09.361Z,12.30
2022-09-07T22:36:38.663Z,12.98
2022-09-07T22:39:08.756Z,11.93
2022-09-07T22:41:38.168Z,12.15
2022-09-07T22:44:06.506Z,12.50
2022-09-07T22:46:37.160Z,12.77
2022-09-07T22:49:06.089Z,12.10
2022-09-07T22:51:35.939Z,12.63
2022-09-07T22:54:04.126Z,12.48
2022-09-07T22:56:33.063Z,13.18
2022-09-07T22:59:01.938Z,11.23
2022-09-07T23:01:31.157Z,12.88
2022-09-07T23:03:59.629Z,12.80
2022-09-07T23:06:28.794Z,12.85
2022-09-07T23:08:59.071Z,14.32
2022-09-07T23:11:27.718Z,13.93
2022-09-07T23:13:56.582Z,13.88
2022-09-07T23:16:25.542Z,13.32
2022-09-07T23:18:53.861Z,13.50
2022-09-07T23:21:22.308Z,12.43
2022-09-07T23:23:52.214Z,13.20
2022-09-07T23:26:22.213Z,13.63
2022-09-07T23:28:53.319Z,13.27
2022-09-07T23:31:21.905Z,13.27
2022-09-07T23:33:50.494Z,13.40
2022-09-07T23:36:19.368Z,13.32
2022-09-07T23:38:48.010Z,13.30
2022-09-07T23:41:17.361Z,13.07
2022-09-07T23:43:47.058Z,13.93
2022-09-07T23:46:15.743Z,14.60
2022-09-07T23:48:44.945Z,13.70
2022-09-07T23:51:13.473Z,15.20
2022-09-07T23:53:42.098Z,15.70
2022-09-07T23:56:10.387Z,16.70
2022-09-07T23:58:38.800Z,15.57
